createdAt,value
2022-08-04T03:52:30.108Z,4.90
2022-08-04T05:34:28.820Z,5.60
2022-08-04T05:51:54.447Z,5.60
2022-08-04T06:10:29.597Z,5.03
2022-08-04T06:18:32.989Z,5.00
2022-08-04T06:21:16.402Z,8.23
2022-08-04T06:24:04.267Z,7.57
2022-08-04T06:30:14.967Z,6.33
2022-08-04T06:33:18.086Z,5.03
2022-08-04T06:36:53.834Z,4.87
2022-08-04T06:54:19.879Z,4.50
2022-08-04T06:56:49.120Z,4.63
2022-08-04T06:59:23.729Z,4.70
2022-08-04T07:08:03.085Z,4.53
2022-08-04T07:09:10.830Z,4.20
2022-08-04T07:10:33.818Z,4.67
2022-08-04T07:13:04.047Z,4.20
2022-08-04T07:15:35.873Z,5.10
2022-08-04T07:18:04.899Z,4.60
2022-08-04T07:20:35.600Z,4.50
2022-08-04T07:23:06.980Z,5.03
2022-08-04T07:26:00.991Z,4.67
2022-08-04T07:28:26.146Z,4.13
2022-08-04T07:31:01.305Z,4.23
2022-08-04T07:33:39.281Z,4.47
2022-08-04T07:39:47.997Z,4.10
2022-08-04T07:42:23.180Z,4.20
2022-08-04T07:44:50.446Z,3.70
2022-08-04T07:47:22.233Z,4.23
2022-08-04T07:49:56.164Z,4.17
2022-08-04T07:52:28.596Z,4.13
2022-08-04T07:54:56.406Z,4.00
2022-08-04T07:57:41.796Z,4.63
2022-08-04T08:00:14.940Z,4.57
2022-08-04T08:02:43.556Z,4.10
2022-08-04T08:05:15.082Z,3.83
2022-08-04T08:07:54.691Z,4.60
2022-08-04T08:10:22.160Z,3.70
2022-08-04T08:12:51.879Z,3.80
2022-08-04T08:15:20.051Z,3.60
2022-08-04T08:17:59.502Z,3.27
2022-08-04T08:20:30.378Z,3.57
2022-08-04T08:22:58.408Z,3.40
2022-08-04T08:25:26.090Z,3.77
2022-08-04T08:27:56.052Z,3.50
2022-08-04T08:30:25.272Z,3.43
2022-08-04T08:33:10.169Z,3.70
2022-08-04T08:35:59.114Z,3.40
2022-08-04T08:38:41.271Z,3.13
2022-08-04T08:41:39.550Z,3.63
2022-08-04T08:44:30.212Z,3.10
2022-08-04T08:48:05.410Z,3.53
2022-08-04T08:50:36.734Z,3.60
2022-08-04T08:53:28.742Z,3.63
2022-08-04T08:56:43.267Z,3.20
2022-08-04T08:59:34.858Z,3.97
2022-08-04T09:02:28.577Z,3.30
2022-08-04T09:05:13.982Z,3.03
2022-08-04T09:08:18.223Z,2.90
2022-08-04T09:10:50.897Z,2.90
2022-08-04T09:13:46.257Z,2.87
2022-08-04T09:16:45.640Z,3.10
2022-08-04T09:19:39.536Z,2.83
2022-08-04T09:22:13.473Z,3.10
2022-08-04T09:25:04.981Z,2.90
2022-08-04T09:27:40.243Z,2.80
2022-08-04T09:30:09.630Z,2.83
2022-08-04T09:32:39.323Z,2.40
2022-08-04T09:35:43.775Z,2.13
2022-08-04T09:38:33.322Z,2.97
2022-08-04T09:41:48.654Z,2.63
2022-08-04T09:44:53.027Z,2.30
2022-08-04T09:47:41.622Z,2.23
2022-08-04T09:50:35.839Z,2.20
2022-08-04T09:53:25.641Z,2.70
2022-08-04T09:56:10.989Z,2.47
2022-08-04T09:58:51.263Z,1.97
2022-08-04T10:01:24.974Z,1.83
2022-08-04T10:03:56.563Z,2.10
2022-08-04T10:06:41.913Z,1.87
2022-08-04T10:09:40.863Z,1.93
2022-08-04T10:12:27.527Z,2.07
2022-08-04T10:15:11.725Z,1.70
2022-08-04T10:17:54.387Z,2.10
2022-08-04T10:20:54.090Z,1.90
2022-08-04T10:23:56.034Z,2.03
2022-08-04T10:26:39.215Z,1.60
2022-08-04T10:29:12.649Z,1.37
2022-08-04T10:32:02.162Z,1.63
2022-08-04T10:34:36.490Z,1.43
2022-08-04T10:37:14.506Z,1.23
2022-08-04T10:40:12.742Z,1.70
2022-08-04T10:43:06.741Z,1.20
2022-08-04T10:46:27.287Z,1.30
2022-08-04T10:49:01.334Z,1.30
2022-08-04T10:51:58.911Z,1.10
2022-08-04T10:54:51.698Z,1.10
2022-08-04T10:57:29.808Z,1.13
2022-08-04T11:00:09.569Z,1.00
2022-08-04T11:02:57.694Z,1.20
2022-08-04T11:05:34.340Z,1.13
2022-08-04T11:08:25.309Z,1.20
2022-08-04T11:11:07.938Z,0.90
2022-08-04T11:13:47.356Z,1.40
2022-08-04T11:16:21.089Z,1.30
2022-08-04T11:19:13.509Z,1.40
2022-08-04T11:21:47.571Z,1.17
2022-08-04T11:24:37.414Z,0.90
2022-08-04T11:27:11.817Z,1.00
2022-08-04T11:29:50.666Z,1.20
2022-08-04T11:32:24.713Z,1.20
2022-08-04T11:35:00.334Z,1.20
2022-08-04T11:37:33.794Z,0.93
2022-08-04T11:40:24.336Z,1.10
2022-08-04T11:42:57.190Z,1.10
2022-08-04T11:45:32.411Z,1.00
2022-08-04T11:48:07.341Z,0.70
2022-08-04T11:50:39.049Z,0.90
2022-08-04T11:53:07.046Z,0.80
2022-08-04T11:56:07.656Z,0.90
2022-08-04T11:58:22.249Z,0.80
2022-08-04T12:01:21.675Z,0.90
2022-08-04T12:04:13.495Z,1.00
2022-08-04T12:07:04.681Z,1.00
2022-08-04T12:10:07.110Z,0.87
2022-08-04T12:13:06.098Z,0.90
2022-08-04T12:16:00.037Z,0.90
2022-08-04T12:18:36.630Z,0.90
2022-08-04T12:21:11.147Z,1.00
2022-08-04T12:23:44.908Z,1.03
2022-08-04T12:26:21.139Z,0.90
2022-08-04T12:29:09.676Z,1.07
2022-08-04T12:31:45.909Z,1.00
2022-08-04T12:34:54.995Z,1.00
2022-08-04T12:38:02.846Z,1.10
2022-08-04T12:40:41.084Z,0.97
2022-08-04T12:43:30.196Z,1.03
2022-08-04T12:46:00.788Z,1.20
2022-08-04T12:48:28.412Z,1.00
2022-08-04T12:50:57.342Z,1.00
2022-08-04T12:53:51.228Z,0.90
2022-08-04T12:56:26.716Z,0.87
2022-08-04T12:59:00.502Z,1.10
2022-08-04T13:02:08.200Z,0.90
2022-08-04T13:04:20.679Z,0.97
2022-08-04T13:07:03.333Z,1.07
2022-08-04T13:09:34.039Z,0.90
2022-08-04T13:12:13.109Z,1.00
2022-08-04T13:14:45.093Z,1.00
2022-08-04T13:17:12.566Z,0.90
2022-08-04T13:19:41.556Z,0.90
2022-08-04T13:22:09.345Z,1.20
2022-08-04T13:24:57.166Z,1.10
2022-08-04T13:27:27.098Z,1.13
2022-08-04T13:30:03.899Z,0.90
2022-08-04T13:32:31.728Z,1.00
2022-08-04T13:35:01.754Z,0.97
2022-08-04T13:37:36.089Z,1.20
2022-08-04T13:40:10.071Z,1.10
2022-08-04T13:42:38.800Z,1.07
2022-08-04T13:45:07.877Z,1.20
2022-08-04T13:47:38.317Z,1.20
2022-08-04T13:50:16.885Z,1.57
2022-08-04T13:52:44.973Z,1.37
2022-08-04T13:55:25.554Z,1.30
2022-08-04T13:58:02.385Z,1.30
2022-08-04T14:00:47.970Z,1.43
2022-08-04T14:03:24.992Z,1.50
2022-08-04T14:06:10.506Z,1.40
2022-08-04T14:08:47.769Z,1.67
2022-08-04T14:12:08.878Z,1.67
2022-08-04T14:14:27.884Z,1.50
2022-08-04T14:17:20.315Z,1.73
2022-08-04T14:19:47.897Z,1.70
2022-08-04T14:22:29.871Z,1.77
2022-08-04T14:25:15.305Z,1.70
2022-08-04T14:27:45.374Z,1.50
2022-08-04T14:30:21.789Z,1.40
2022-08-04T14:34:02.188Z,1.70
2022-08-04T14:35:58.931Z,1.90
2022-08-04T14:38:49.952Z,1.70
2022-08-04T14:41:19.067Z,1.70
2022-08-04T14:43:50.040Z,1.73
2022-08-04T14:46:17.430Z,1.90
2022-08-04T14:49:12.101Z,1.87
2022-08-04T14:51:41.940Z,2.00
2022-08-04T14:54:18.113Z,1.70
2022-08-04T14:56:54.639Z,1.77
2022-08-04T14:59:22.269Z,2.00
2022-08-04T15:02:00.036Z,2.10
2022-08-04T15:04:28.890Z,1.93
2022-08-04T15:06:55.966Z,1.77
2022-08-04T15:09:23.177Z,1.80
2022-08-04T15:11:50.177Z,2.03
2022-08-04T15:14:37.708Z,1.73
2022-08-04T15:17:07.347Z,1.83
2022-08-04T15:19:38.945Z,1.90
2022-08-04T15:22:06.871Z,2.17
2022-08-04T15:24:44.485Z,2.13
2022-08-04T15:27:19.971Z,1.93
2022-08-04T15:29:59.490Z,2.17
2022-08-04T15:32:31.716Z,2.40
2022-08-04T15:35:09.226Z,1.90
2022-08-04T15:38:00.585Z,2.07
2022-08-04T15:40:45.535Z,2.33
2022-08-04T15:43:21.492Z,2.17
2022-08-04T15:46:37.224Z,2.37
2022-08-04T15:48:40.454Z,2.57
2022-08-04T15:51:15.091Z,2.10
2022-08-04T15:54:01.465Z,2.47
2022-08-04T15:56:29.779Z,2.10
2022-08-04T15:58:57.719Z,2.07
2022-08-04T16:01:25.339Z,2.20
2022-08-04T16:03:58.979Z,2.00
2022-08-04T16:06:29.597Z,2.20
2022-08-04T16:09:04.811Z,2.00
2022-08-04T16:11:37.270Z,2.03
2022-08-04T16:14:04.786Z,2.00
2022-08-04T16:16:41.138Z,2.03
2022-08-04T16:19:36.504Z,2.00
2022-08-04T16:22:04.923Z,2.10
2022-08-04T16:24:38.637Z,2.10
2022-08-04T16:27:09.551Z,2.50
2022-08-04T16:29:48.087Z,2.33
2022-08-04T16:32:23.817Z,2.23
2022-08-04T16:35:05.077Z,2.10
2022-08-04T16:37:42.399Z,2.40
2022-08-04T16:40:36.581Z,2.17
2022-08-04T16:43:07.293Z,2.10
2022-08-04T16:45:54.737Z,2.13
2022-08-04T16:48:30.514Z,2.20
2022-08-04T16:51:05.021Z,2.30
2022-08-04T16:53:53.506Z,2.40
2022-08-04T16:56:34.542Z,2.20
2022-08-04T16:59:11.039Z,2.30
2022-08-04T17:01:49.603Z,2.37
2022-08-04T17:04:22.531Z,2.20
2022-08-04T17:06:49.616Z,2.47
2022-08-04T17:09:28.410Z,2.20
2022-08-04T17:11:57.043Z,2.40
2022-08-04T17:14:29.525Z,2.60
2022-08-04T17:17:11.112Z,2.57
2022-08-04T17:19:38.554Z,2.23
2022-08-04T17:22:14.434Z,2.23
2022-08-04T17:24:42.022Z,2.20
2022-08-04T17:28:09.473Z,2.43
2022-08-04T17:29:58.908Z,2.23
2022-08-04T17:32:26.072Z,2.50
2022-08-04T17:35:00.415Z,2.47
2022-08-04T17:37:39.704Z,2.17
2022-08-04T17:40:18.559Z,2.47
2022-08-04T17:44:03.506Z,2.40
2022-08-04T17:46:48.186Z,2.30
2022-08-04T17:49:20.519Z,2.33
2022-08-04T17:52:44.694Z,2.60
2022-08-04T17:58:23.218Z,2.30
2022-08-04T18:05:21.605Z,2.50
2022-08-04T18:08:45.443Z,2.30
2022-08-04T18:10:52.077Z,2.40
2022-08-04T18:13:42.877Z,2.70
2022-08-04T18:16:27.276Z,2.60
2022-08-04T18:29:39.575Z,2.30
2022-08-04T18:32:09.135Z,2.50
2022-08-04T18:34:39.834Z,2.70
2022-08-04T18:38:05.085Z,2.77
2022-08-04T18:41:15.534Z,2.80
2022-08-04T18:44:00.194Z,3.40
2022-08-04T18:46:27.460Z,2.67
2022-08-04T19:06:25.908Z,3.43
2022-08-04T19:09:52.184Z,3.37
2022-08-04T19:16:16.866Z,3.80
2022-08-04T19:19:05.564Z,3.30
2022-08-04T19:22:01.035Z,3.50
2022-08-04T19:28:08.614Z,3.60
2022-08-04T19:34:08.959Z,3.83
2022-08-04T19:37:05.558Z,3.50
2022-08-04T19:39:41.759Z,3.23
2022-08-04T19:43:23.108Z,3.63
2022-08-04T19:50:05.138Z,3.47
2022-08-04T19:52:52.150Z,4.03
2022-08-04T19:58:26.419Z,3.53
2022-08-04T20:01:55.646Z,4.13
2022-08-04T20:26:34.787Z,4.40
2022-08-04T22:27:55.949Z,5.23
